createdAt,value
2022-07-25T00:01:07.681Z,49.41
2022-07-25T00:03:35.677Z,49.29
2022-07-25T00:06:07.684Z,49.41
2022-07-25T00:08:42.926Z,49.45
2022-07-25T00:11:11.066Z,49.58
2022-07-25T00:13:38.999Z,49.32
2022-07-25T00:16:07.822Z,49.55
2022-07-25T00:18:35.978Z,49.60
2022-07-25T00:21:04.196Z,49.52
2022-07-25T00:23:32.126Z,49.63
2022-07-25T00:26:01.579Z,49.70
2022-07-25T00:28:29.599Z,49.53
2022-07-25T00:30:57.635Z,49.44
2022-07-25T00:33:25.821Z,49.54
2022-07-25T00:35:53.702Z,49.65
2022-07-25T00:38:21.683Z,49.49
2022-07-25T00:40:53.550Z,49.61
2022-07-25T00:43:24.680Z,49.57
2022-07-25T00:45:52.677Z,49.65
2022-07-25T00:48:21.024Z,49.72
2022-07-25T00:50:49.288Z,49.59
2022-07-25T00:53:17.579Z,49.64
2022-07-25T00:55:45.983Z,49.64
2022-07-25T00:58:14.444Z,49.90
2022-07-25T01:00:43.735Z,49.75
2022-07-25T01:03:11.861Z,49.87
2022-07-25T01:05:40.503Z,49.96
2022-07-25T01:08:09.183Z,49.83
2022-07-25T01:10:37.501Z,49.89
2022-07-25T01:13:06.286Z,49.83
2022-07-25T01:15:34.510Z,49.79
2022-07-25T01:18:03.998Z,49.81
2022-07-25T01:20:34.177Z,49.80
2022-07-25T01:23:02.856Z,50.04
2022-07-25T01:25:30.828Z,50.03
2022-07-25T01:27:58.865Z,49.85
2022-07-25T01:30:27.612Z,49.96
2022-07-25T01:32:55.550Z,50.03
2022-07-25T01:35:23.618Z,50.09
2022-07-25T01:37:52.889Z,50.07
2022-07-25T01:40:21.028Z,50.06
2022-07-25T01:42:48.911Z,49.86
2022-07-25T01:45:16.887Z,49.91
2022-07-25T01:47:44.835Z,50.03
2022-07-25T01:50:12.792Z,49.82
2022-07-25T01:52:40.859Z,49.95
2022-07-25T01:55:10.593Z,49.87
2022-07-25T01:57:40.291Z,50.09
2022-07-25T02:00:11.445Z,49.96
2022-07-25T02:02:42.663Z,50.00
2022-07-25T02:05:12.834Z,50.08
2022-07-25T02:07:41.155Z,49.98
2022-07-25T02:10:11.324Z,50.20
2022-07-25T02:12:39.203Z,49.87
2022-07-25T02:15:08.655Z,50.10
2022-07-25T02:17:36.469Z,49.90
2022-07-25T02:20:05.254Z,49.85
2022-07-25T02:22:33.356Z,49.74
2022-07-25T02:25:01.310Z,49.89
2022-07-25T02:27:30.541Z,49.69
2022-07-25T02:29:58.463Z,49.78
2022-07-25T02:32:29.164Z,49.79
2022-07-25T02:34:58.415Z,49.81
2022-07-25T02:37:32.072Z,50.03
2022-07-25T02:40:00.066Z,50.05
2022-07-25T02:42:27.893Z,49.74
2022-07-25T02:44:57.158Z,49.61
2022-07-25T02:47:26.361Z,49.53
2022-07-25T02:49:54.565Z,49.74
2022-07-25T02:52:22.515Z,49.71
2022-07-25T02:54:50.755Z,49.80
2022-07-25T02:57:18.767Z,49.64
2022-07-25T02:59:46.651Z,49.89
2022-07-25T03:02:19.709Z,50.02
2022-07-25T03:04:47.695Z,50.07
2022-07-25T03:07:18.988Z,49.88
2022-07-25T03:09:46.910Z,50.16
2022-07-25T03:12:14.747Z,50.29
2022-07-25T03:14:42.724Z,50.07
2022-07-25T03:17:12.344Z,50.40
2022-07-25T03:19:41.617Z,50.29
2022-07-25T03:22:10.172Z,50.17
2022-07-25T03:24:41.033Z,50.33
2022-07-25T03:27:08.976Z,50.39
2022-07-25T03:29:36.831Z,50.28
2022-07-25T03:32:08.004Z,50.29
2022-07-25T03:34:40.827Z,50.30
2022-07-25T03:37:09.117Z,50.10
2022-07-25T03:39:56.961Z,50.32
2022-07-25T03:42:35.154Z,50.36
2022-07-25T03:45:11.035Z,50.20
2022-07-25T03:47:39.071Z,50.19
2022-07-25T03:50:14.500Z,50.18
2022-07-25T03:52:42.598Z,50.37
2022-07-25T03:55:16.566Z,50.41
2022-07-25T03:57:44.507Z,51.74
2022-07-25T04:00:23.040Z,50.26
2022-07-25T04:02:51.158Z,50.25
2022-07-25T04:05:20.453Z,50.05
2022-07-25T04:07:54.175Z,50.14
2022-07-25T04:10:22.056Z,50.09
2022-07-25T04:12:49.924Z,50.05
2022-07-25T04:15:18.122Z,50.08
2022-07-25T04:17:46.025Z,50.05
2022-07-25T04:20:14.348Z,50.14
2022-07-25T04:22:47.122Z,50.04
2022-07-25T04:25:15.357Z,50.13
2022-07-25T04:27:45.372Z,50.06
2022-07-25T04:30:24.034Z,50.23
2022-07-25T04:32:55.501Z,50.10
2022-07-25T04:35:23.708Z,49.96
2022-07-25T04:37:52.993Z,50.10
2022-07-25T04:40:23.564Z,49.61
2022-07-25T04:42:51.396Z,49.87
2022-07-25T04:45:22.878Z,49.71
2022-07-25T04:47:51.293Z,49.51
2022-07-25T04:50:25.201Z,49.31
2022-07-25T04:52:54.358Z,50.88
2022-07-25T04:55:22.466Z,49.26
2022-07-25T04:57:50.259Z,49.11
2022-07-25T05:00:19.508Z,48.99
2022-07-25T05:02:53.259Z,49.06
2022-07-25T05:05:22.389Z,48.92
2022-07-25T05:07:51.060Z,48.81
2022-07-25T05:10:20.439Z,48.57
2022-07-25T05:13:01.631Z,47.12
2022-07-25T05:15:29.504Z,44.26
2022-07-25T05:18:00.439Z,42.69
2022-07-25T05:20:28.914Z,41.71
2022-07-25T05:22:59.633Z,41.13
2022-07-25T05:25:29.165Z,39.89
2022-07-25T05:27:58.585Z,39.45
2022-07-25T05:30:30.222Z,39.88
2022-07-25T05:33:03.639Z,39.63
2022-07-25T05:35:33.043Z,39.42
2022-07-25T05:38:03.967Z,38.99
2022-07-25T05:40:33.319Z,39.18
2022-07-25T05:43:03.598Z,39.03
2022-07-25T05:45:32.047Z,38.06
2022-07-25T05:48:02.946Z,38.89
2022-07-25T05:50:30.871Z,38.59
2022-07-25T05:52:58.791Z,38.30
2022-07-25T05:55:28.289Z,37.84
2022-07-25T05:57:57.839Z,37.38
2022-07-25T06:00:26.318Z,37.26
2022-07-25T06:02:55.476Z,36.89
2022-07-25T06:05:26.726Z,36.56
2022-07-25T06:07:57.255Z,36.36
2022-07-25T06:10:25.410Z,36.12
2022-07-25T06:12:54.261Z,35.28
2022-07-25T06:15:26.911Z,35.08
2022-07-25T06:17:56.236Z,34.87
2022-07-25T06:20:29.915Z,34.34
2022-07-25T06:22:59.168Z,34.37
2022-07-25T06:25:27.318Z,34.57
2022-07-25T06:27:55.143Z,34.98
2022-07-25T06:30:24.559Z,34.50
2022-07-25T06:32:54.882Z,35.23
2022-07-25T06:35:27.051Z,35.66
2022-07-25T06:38:05.000Z,35.99
2022-07-25T06:40:33.034Z,36.93
2022-07-25T06:43:04.057Z,37.77
2022-07-25T06:45:33.548Z,38.38
2022-07-25T06:48:06.021Z,38.90
2022-07-25T06:50:34.299Z,39.77
2022-07-25T06:53:08.192Z,40.94
2022-07-25T06:55:36.450Z,41.90
2022-07-25T06:58:10.385Z,42.27
2022-07-25T07:00:43.150Z,43.06
2022-07-25T07:03:13.852Z,43.56
2022-07-25T07:05:43.128Z,43.77
2022-07-25T07:08:18.671Z,43.94
2022-07-25T07:10:46.487Z,44.27
2022-07-25T07:13:24.709Z,43.86
2022-07-25T07:15:54.336Z,43.79
2022-07-25T07:18:22.568Z,43.32
2022-07-25T07:21:16.139Z,42.14
2022-07-25T07:23:53.756Z,42.79
2022-07-25T07:26:21.997Z,43.54
2022-07-25T07:28:54.447Z,43.20
2022-07-25T07:31:25.654Z,42.80
2022-07-25T07:33:55.285Z,42.95
2022-07-25T07:36:23.474Z,42.79
2022-07-25T07:38:52.437Z,42.77
2022-07-25T07:41:24.194Z,42.79
2022-07-25T07:43:52.165Z,42.11
2022-07-25T07:46:20.203Z,42.61
2022-07-25T07:48:49.672Z,43.04
2022-07-25T07:51:17.618Z,42.92
2022-07-25T07:54:02.895Z,42.39
2022-07-25T07:56:30.736Z,42.32
2022-07-25T07:58:58.643Z,42.44
2022-07-25T08:01:26.996Z,41.66
2022-07-25T08:03:56.286Z,42.51
2022-07-25T08:06:24.288Z,42.25
2022-07-25T08:08:52.127Z,42.31
2022-07-25T08:11:24.774Z,43.25
2022-07-25T08:13:52.724Z,43.06
2022-07-25T08:16:20.668Z,43.62
2022-07-25T08:19:00.175Z,43.48
2022-07-25T08:21:29.800Z,43.29
2022-07-25T08:24:00.786Z,43.88
2022-07-25T08:26:30.467Z,43.25
2022-07-25T08:29:18.109Z,43.50
2022-07-25T08:31:47.053Z,43.04
2022-07-25T08:34:14.967Z,42.58
2022-07-25T08:36:44.587Z,42.37
2022-07-25T08:39:13.516Z,42.09
2022-07-25T08:41:42.256Z,41.34
2022-07-25T08:44:21.378Z,41.11
2022-07-25T08:46:49.820Z,41.75
2022-07-25T08:49:18.372Z,41.96
2022-07-25T08:51:51.683Z,41.94
2022-07-25T08:54:19.959Z,42.12
2022-07-25T08:56:55.360Z,42.20
2022-07-25T08:59:23.317Z,41.51
2022-07-25T09:01:51.277Z,41.41
2022-07-25T09:04:19.755Z,41.22
2022-07-25T09:06:53.436Z,40.91
2022-07-25T09:09:34.913Z,41.01
2022-07-25T09:12:05.084Z,41.38
2022-07-25T09:14:49.487Z,40.77
2022-07-25T09:17:22.228Z,41.51
2022-07-25T09:19:57.365Z,41.39
2022-07-25T09:22:27.601Z,41.54
2022-07-25T09:24:56.316Z,41.35
2022-07-25T09:27:34.403Z,41.56
2022-07-25T09:30:13.688Z,41.48
2022-07-25T09:32:41.557Z,41.47
2022-07-25T09:35:16.818Z,41.28
2022-07-25T09:37:46.193Z,41.88
2022-07-25T09:40:15.884Z,41.61
2022-07-25T09:42:52.483Z,40.86
2022-07-25T09:45:20.335Z,41.29
2022-07-25T09:47:54.149Z,41.21
2022-07-25T09:50:24.241Z,41.28
2022-07-25T09:53:02.396Z,40.45
2022-07-25T09:55:31.481Z,40.83
2022-07-25T09:57:59.618Z,40.80
2022-07-25T10:00:29.824Z,40.58
2022-07-25T10:03:12.466Z,40.44
2022-07-25T10:05:51.945Z,40.67
2022-07-25T10:08:22.491Z,40.84
2022-07-25T10:10:53.238Z,40.80
2022-07-25T10:13:31.504Z,40.00
2022-07-25T10:15:59.570Z,40.63
2022-07-25T10:18:30.023Z,40.31
2022-07-25T10:21:28.675Z,40.18
2022-07-25T10:24:04.504Z,39.93
2022-07-25T10:26:33.961Z,40.03
2022-07-25T10:29:34.378Z,37.42
2022-07-25T10:32:13.305Z,39.49
2022-07-25T10:34:41.879Z,39.69
2022-07-25T10:37:11.962Z,39.57
2022-07-25T10:39:42.757Z,39.73
2022-07-25T10:42:14.622Z,39.49
2022-07-25T10:44:46.758Z,39.33
2022-07-25T10:47:16.007Z,39.53
2022-07-25T10:50:13.380Z,39.32
2022-07-25T10:52:46.075Z,38.26
2022-07-25T10:55:24.152Z,39.17
2022-07-25T10:58:18.721Z,39.62
2022-07-25T11:00:53.830Z,39.64
2022-07-25T11:03:22.417Z,39.27
2022-07-25T11:05:54.669Z,40.06
2022-07-25T11:08:32.139Z,38.47
2022-07-25T11:11:11.479Z,39.96
2022-07-25T11:13:40.589Z,40.57
2022-07-25T11:16:09.873Z,40.33
2022-07-25T11:18:40.268Z,40.62
2022-07-25T11:21:09.988Z,40.63
2022-07-25T11:23:38.002Z,40.62
2022-07-25T11:26:12.443Z,40.52
2022-07-25T11:28:42.150Z,40.61
2022-07-25T11:31:11.922Z,40.92
2022-07-25T11:33:40.647Z,40.74
2022-07-25T11:36:10.863Z,40.76
2022-07-25T11:38:40.210Z,40.49
2022-07-25T11:44:19.118Z,38.81
2022-07-25T11:46:47.234Z,39.81
2022-07-25T11:49:15.302Z,39.30
2022-07-25T11:51:43.260Z,39.47
2022-07-25T11:54:19.397Z,39.07
2022-07-25T11:56:47.589Z,39.44
2022-07-25T11:59:16.918Z,39.16
2022-07-25T12:01:59.953Z,39.23
2022-07-25T12:04:41.844Z,39.15
2022-07-25T12:07:12.180Z,39.55
2022-07-25T12:09:40.579Z,39.51
2022-07-25T12:12:09.311Z,40.15
2022-07-25T12:14:45.442Z,40.00
2022-07-25T12:17:13.503Z,40.92
2022-07-25T12:19:42.145Z,40.64
2022-07-25T12:22:10.094Z,40.66
2022-07-25T12:24:42.022Z,40.65
2022-07-25T12:27:11.281Z,40.42
2022-07-25T12:29:39.154Z,40.28
2022-07-25T12:32:08.709Z,40.63
2022-07-25T12:34:38.108Z,40.41
2022-07-25T12:37:08.991Z,40.22
2022-07-25T12:39:36.895Z,40.56
2022-07-25T12:42:05.046Z,39.90
2022-07-25T12:44:36.208Z,40.29
2022-07-25T12:47:04.143Z,40.56
2022-07-25T12:49:36.256Z,41.07
2022-07-25T12:52:05.040Z,41.30
2022-07-25T12:54:32.956Z,41.57
2022-07-25T12:57:01.625Z,42.52
2022-07-25T12:59:29.541Z,42.11
2022-07-25T13:01:57.666Z,42.08
2022-07-25T13:04:26.747Z,41.95
2022-07-25T13:06:56.305Z,41.90
2022-07-25T13:09:28.095Z,41.89
2022-07-25T13:11:59.487Z,42.01
2022-07-25T13:14:27.497Z,42.11
2022-07-25T13:16:55.982Z,41.95
2022-07-25T13:19:23.980Z,42.14
2022-07-25T13:21:54.977Z,42.08
2022-07-25T13:24:26.506Z,41.74
2022-07-25T13:26:54.677Z,41.98
2022-07-25T13:29:22.713Z,41.73
2022-07-25T13:31:51.970Z,41.92
2022-07-25T13:34:24.811Z,41.47
2022-07-25T13:36:55.729Z,41.35
2022-07-25T13:39:32.433Z,41.00
2022-07-25T13:42:00.326Z,40.55
2022-07-25T13:44:30.486Z,39.84
2022-07-25T13:47:06.251Z,40.02
2022-07-25T13:49:41.211Z,40.69
2022-07-25T13:52:18.217Z,40.89
2022-07-25T13:55:02.295Z,40.08
2022-07-25T13:57:30.187Z,41.21
2022-07-25T13:59:58.172Z,40.90
2022-07-25T14:02:26.111Z,40.86
2022-07-25T14:04:54.156Z,40.64
2022-07-25T14:07:22.033Z,40.14
2022-07-25T14:09:51.254Z,40.31
2022-07-25T14:12:19.115Z,40.68
2022-07-25T14:14:47.084Z,40.42
2022-07-25T14:17:15.074Z,40.75
2022-07-25T14:19:45.423Z,40.75
2022-07-25T14:22:13.266Z,40.69
2022-07-25T14:24:43.337Z,40.24
2022-07-25T14:27:12.924Z,40.30
2022-07-25T14:29:40.755Z,40.27
2022-07-25T14:32:09.074Z,40.24
2022-07-25T14:34:37.920Z,40.15
2022-07-25T14:37:07.472Z,40.24
2022-07-25T14:39:36.258Z,40.74
2022-07-25T14:42:04.645Z,40.79
2022-07-25T14:44:39.474Z,40.67
2022-07-25T14:47:12.277Z,40.60
2022-07-25T14:49:41.296Z,40.64
2022-07-25T14:52:16.996Z,40.57
2022-07-25T14:54:44.958Z,40.11
2022-07-25T14:57:12.750Z,39.96
2022-07-25T14:59:42.069Z,40.06
2022-07-25T15:02:11.007Z,40.71
2022-07-25T15:04:38.894Z,40.67
2022-07-25T15:07:12.736Z,40.57
2022-07-25T15:09:40.582Z,40.95
2022-07-25T15:12:16.684Z,40.48
2022-07-25T15:14:46.698Z,40.38
2022-07-25T15:17:17.864Z,40.52
2022-07-25T15:19:51.039Z,40.30
2022-07-25T15:22:19.004Z,40.80
2022-07-25T15:25:22.452Z,41.07
2022-07-25T15:27:38.304Z,41.29
2022-07-25T15:30:16.805Z,40.65
2022-07-25T15:32:45.781Z,41.41
2022-07-25T15:35:13.691Z,41.56
2022-07-25T15:37:41.756Z,41.23
2022-07-25T15:40:15.906Z,39.41
2022-07-25T15:42:44.957Z,41.65
2022-07-25T15:45:32.590Z,41.90
2022-07-25T15:48:07.850Z,41.34
2022-07-25T15:50:36.672Z,42.44
2022-07-25T15:53:08.083Z,43.57
2022-07-25T15:55:38.017Z,43.97
2022-07-25T15:58:06.518Z,44.69
2022-07-25T16:00:34.733Z,44.86
2022-07-25T16:03:04.085Z,44.93
2022-07-25T16:05:33.978Z,45.13
2022-07-25T16:08:02.932Z,44.93
2022-07-25T16:10:32.038Z,45.11
2022-07-25T16:13:00.946Z,45.17
2022-07-25T16:15:29.510Z,45.04
2022-07-25T16:18:02.318Z,44.74
2022-07-25T16:20:31.965Z,44.95
2022-07-25T16:23:02.120Z,45.26
2022-07-25T16:25:30.866Z,45.51
2022-07-25T16:28:00.339Z,45.49
2022-07-25T16:30:31.423Z,45.80
2022-07-25T16:33:05.687Z,46.74
2022-07-25T16:35:33.662Z,45.65
2022-07-25T16:38:09.043Z,46.59
2022-07-25T16:40:36.885Z,45.66
2022-07-25T16:43:05.033Z,45.46
2022-07-25T16:45:33.763Z,45.45
2022-07-25T16:48:01.641Z,45.39
2022-07-25T16:50:29.507Z,45.26
2022-07-25T16:52:57.387Z,45.25
2022-07-25T16:55:26.642Z,45.66
2022-07-25T16:57:54.978Z,45.67
2022-07-25T17:00:24.863Z,46.07
2022-07-25T17:02:55.476Z,45.55
2022-07-25T17:05:30.694Z,45.69
2022-07-25T17:08:01.921Z,45.69
2022-07-25T17:10:31.187Z,46.41
2022-07-25T17:13:01.248Z,46.44
2022-07-25T17:15:29.193Z,46.58
2022-07-25T17:18:06.218Z,46.99
2022-07-25T17:20:34.039Z,46.20
2022-07-25T17:23:29.688Z,47.73
2022-07-25T17:26:02.105Z,46.36
2022-07-25T17:28:30.107Z,46.21
2022-07-25T17:30:57.981Z,46.26
2022-07-25T17:33:25.931Z,46.39
2022-07-25T17:35:54.027Z,46.91
2022-07-25T17:38:26.972Z,46.55
2022-07-25T17:41:00.978Z,47.58
2022-07-25T17:43:29.115Z,47.10
2022-07-25T17:45:57.559Z,47.52
2022-07-25T17:48:28.566Z,47.57
2022-07-25T17:50:56.507Z,48.02
2022-07-25T17:53:24.593Z,48.59
2022-07-25T17:55:54.798Z,47.96
2022-07-25T17:58:34.258Z,48.83
2022-07-25T18:01:03.988Z,48.39
2022-07-25T18:03:35.050Z,48.15
2022-07-25T18:06:05.130Z,48.28
2022-07-25T18:08:36.363Z,48.60
2022-07-25T18:11:04.457Z,47.86
2022-07-25T18:13:36.885Z,47.90
2022-07-25T18:16:05.459Z,48.22
2022-07-25T18:18:33.614Z,48.01
2022-07-25T18:21:01.841Z,47.63
2022-07-25T18:23:43.550Z,47.98
2022-07-25T18:26:11.907Z,47.79
2022-07-25T18:28:45.487Z,47.46
2022-07-25T18:31:13.685Z,47.81
2022-07-25T18:33:44.415Z,47.83
2022-07-25T18:36:12.363Z,48.11
2022-07-25T18:38:40.698Z,48.55
2022-07-25T18:41:29.377Z,49.31
2022-07-25T18:44:01.879Z,48.71
2022-07-25T18:46:30.240Z,49.11
2022-07-25T18:48:58.816Z,48.94
2022-07-25T18:51:29.769Z,48.98
2022-07-25T18:53:57.669Z,48.67
2022-07-25T18:56:25.581Z,48.60
2022-07-25T18:58:53.472Z,48.68
2022-07-25T19:01:27.329Z,48.64
2022-07-25T19:03:57.109Z,48.63
2022-07-25T19:06:25.326Z,48.81
2022-07-25T19:09:04.020Z,48.76
2022-07-25T19:11:42.208Z,49.19
2022-07-25T19:14:10.730Z,49.32
2022-07-25T19:16:42.853Z,49.33
2022-07-25T19:19:13.192Z,49.55
2022-07-25T19:21:40.980Z,49.43
2022-07-25T19:24:09.279Z,49.11
2022-07-25T19:26:40.474Z,49.33
2022-07-25T19:29:08.697Z,49.41
2022-07-25T19:31:41.439Z,49.35
2022-07-25T19:34:11.626Z,49.24
2022-07-25T19:36:45.808Z,49.19
2022-07-25T19:39:14.268Z,48.73
2022-07-25T19:41:46.719Z,48.66
2022-07-25T19:44:15.471Z,48.66
2022-07-25T19:46:44.856Z,48.93
2022-07-25T19:49:21.564Z,48.74
2022-07-25T19:51:52.331Z,48.71
2022-07-25T19:54:21.641Z,48.62
2022-07-25T19:56:49.494Z,48.80
2022-07-25T19:59:20.184Z,48.97
2022-07-25T20:01:50.229Z,48.76
2022-07-25T20:04:18.174Z,48.82
2022-07-25T20:06:46.001Z,48.92
2022-07-25T20:09:14.357Z,49.00
2022-07-25T20:11:43.719Z,49.14
2022-07-25T20:14:11.691Z,49.01
2022-07-25T20:16:40.438Z,48.96
2022-07-25T20:19:11.875Z,49.23
2022-07-25T20:21:40.984Z,49.37
2022-07-25T20:24:09.505Z,49.24
2022-07-25T20:26:37.644Z,49.47
2022-07-25T20:29:10.683Z,49.44
2022-07-25T20:31:38.964Z,49.43
2022-07-25T20:34:06.995Z,49.50
2022-07-25T20:36:43.817Z,49.43
2022-07-25T20:39:20.772Z,49.67
2022-07-25T20:41:51.376Z,49.65
2022-07-25T20:44:19.640Z,49.71
2022-07-25T20:46:51.454Z,49.62
2022-07-25T20:49:25.038Z,49.56
2022-07-25T20:51:54.922Z,49.29
2022-07-25T20:54:23.449Z,49.46
2022-07-25T20:56:51.757Z,49.75
2022-07-25T20:59:20.178Z,50.04
2022-07-25T21:01:48.289Z,50.13
2022-07-25T21:04:19.050Z,50.16
2022-07-25T21:06:57.332Z,50.37
2022-07-25T21:09:29.554Z,50.18
2022-07-25T21:12:00.410Z,50.10
2022-07-25T21:14:30.097Z,50.35
2022-07-25T21:16:58.104Z,50.55
2022-07-25T21:19:27.159Z,50.52
2022-07-25T21:21:55.247Z,50.49
2022-07-25T21:24:27.777Z,50.53
2022-07-25T21:27:03.807Z,50.56
2022-07-25T21:29:34.492Z,50.50
2022-07-25T21:32:13.757Z,50.61
2022-07-25T21:34:47.429Z,50.51
2022-07-25T21:37:16.406Z,50.46
2022-07-25T21:39:50.684Z,50.49
2022-07-25T21:42:21.733Z,50.46
2022-07-25T21:44:53.029Z,50.36
2022-07-25T21:47:21.113Z,50.35
2022-07-25T21:50:06.295Z,50.18
2022-07-25T21:52:35.318Z,50.20
2022-07-25T21:55:05.959Z,50.48
2022-07-25T21:57:34.088Z,50.13
2022-07-25T22:00:02.304Z,50.14
2022-07-25T22:02:31.286Z,49.93
2022-07-25T22:04:59.243Z,49.72
2022-07-25T22:07:28.490Z,49.50
2022-07-25T22:10:09.351Z,49.41
2022-07-25T22:12:39.047Z,49.37
2022-07-25T22:15:12.753Z,49.74
2022-07-25T22:17:48.470Z,50.29
2022-07-25T22:20:21.547Z,50.12
2022-07-25T22:22:50.395Z,49.98
2022-07-25T22:25:19.988Z,50.11
2022-07-25T22:27:49.989Z,50.37
2022-07-25T22:30:19.518Z,50.24
2022-07-25T22:32:51.220Z,50.41
2022-07-25T22:35:19.676Z,50.37
2022-07-25T22:37:50.831Z,50.42
2022-07-25T22:40:21.936Z,50.42
2022-07-25T22:42:57.245Z,50.62
2022-07-25T22:45:25.372Z,50.46
2022-07-25T22:47:59.572Z,50.63
2022-07-25T22:50:27.737Z,50.77
2022-07-25T22:52:55.846Z,50.75
2022-07-25T22:55:41.651Z,50.62
2022-07-25T22:58:12.777Z,50.50
2022-07-25T23:00:41.127Z,50.60
2022-07-25T23:03:09.167Z,50.73
2022-07-25T23:05:53.854Z,50.91
2022-07-25T23:08:22.266Z,50.89
2022-07-25T23:10:51.978Z,51.02
2022-07-25T23:13:20.271Z,50.95
2022-07-25T23:15:51.729Z,51.15
2022-07-25T23:18:19.772Z,51.17
2022-07-25T23:20:47.874Z,51.16
2022-07-25T23:23:18.571Z,51.39
2022-07-25T23:25:46.588Z,51.51
2022-07-25T23:28:20.987Z,51.05
2022-07-25T23:30:51.963Z,51.25
2022-07-25T23:33:45.942Z,52.17
2022-07-25T23:36:19.771Z,51.28
2022-07-25T23:38:47.691Z,51.49
2022-07-25T23:41:21.569Z,51.04
2022-07-25T23:43:57.421Z,51.22
2022-07-25T23:46:42.720Z,51.06
2022-07-25T23:49:14.187Z,50.96
2022-07-25T23:51:42.766Z,50.85
2022-07-25T23:54:10.757Z,51.00
2022-07-25T23:56:42.739Z,50.80
2022-07-25T23:59:12.206Z,50.74
